This is the latest recevied weather packets stored in our database for station/object N5DGC. If no packets are shown the sender has not sent any weather packets the latest 10 day(s).
| Time | Temp. | Humidity | Pressure | Rain* | Wind** | Luminosity | Snow |
|---|---|---|---|---|---|---|---|
| 1777686853 | 10.56° C | 56% | 1238.6 hPa | 0 mm | - | 2 W/m² | - |
| 1777686550 | 10.56° C | 56% | 1238.8 hPa | 0 mm | - | 3 W/m² | - |
| 1777686246 | 10.56° C | 56% | 1238.7 hPa | 0 mm | - | 4 W/m² | - |
| 1777685943 | 11.11° C | 55% | 1238.3 hPa | 0 mm | - | 6 W/m² | - |
| 1777685638 | 11.11° C | 54% | 1238.1 hPa | 0 mm | - | 9 W/m² | - |
| 1777685335 | 11.11° C | 54% | 1238.1 hPa | 0 mm | - | 13 W/m² | - |
| 1777685033 | 11.11° C | 54% | 1237.6 hPa | 0 mm | - | 19 W/m² | - |
| 1777684730 | 11.11° C | 53% | 1237.3 hPa | 0 mm | - | 24 W/m² | - |
| 1777684426 | 11.67° C | 53% | 1237.4 hPa | 0 mm | - | 26 W/m² | - |
| 1777684123 | 11.67° C | 51% | 1237.4 hPa | 0 mm | - | 27 W/m² | - |
| 1777683820 | 12.22° C | 50% | 1237.5 hPa | 0 mm | - | 30 W/m² | - |
| 1777683517 | 13.33° C | 48% | 1237.5 hPa | 0 mm | - | 33 W/m² | - |
| 1777683215 | 13.33° C | 48% | 1237.3 hPa | 0 mm | - | 55 W/m² | - |
| 1777682912 | 13.33° C | 47% | 1237.4 hPa | 0 mm | - | 72 W/m² | - |
| 1777682608 | 13.89° C | 47% | 1237.4 hPa | 0 mm | - | 97 W/m² | - |
| 1777682306 | 12.78° C | 49% | 1237.4 hPa | 0 mm | - | 115 W/m² | - |
| 1777682003 | 12.78° C | 50% | 1237.5 hPa | 0 mm | - | 79 W/m² | - |
| 1777681699 | 12.78° C | 49% | 1237.4 hPa | 0 mm | - | 106 W/m² | - |
| 1777681396 | 12.78° C | 50% | 1237.2 hPa | 0 mm | - | 172 W/m² | - |
| 1777681093 | 12.22° C | 51% | 1237.4 hPa | 0 mm | - | 115 W/m² | - |
| 1777680791 | 12.78° C | 50% | 1237.5 hPa | 0 mm | - | 70 W/m² | - |
| 1777680488 | 13.33° C | 47% | 1237.4 hPa | 0 mm | - | 78 W/m² | - |
| 1777680186 | 13.89° C | 46% | 1237.5 hPa | 0 mm | - | 92 W/m² | - |
| 1777679882 | 14.44° C | 45% | 1237 hPa | 0 mm | - | 144 W/m² | - |
| 1777679578 | 15° C | 44% | 1236.9 hPa | 0 mm | - | 245 W/m² | - |
* Rain latest hour (hover to see other rain measurements)
** Current wind speed in m/s (hover to see current wind gust speed)